Data for 05/22/2005

Time Sea-Level Adjusted Pressure Absolute Pressure Temperature Relative Humidity Dew Point   
(mb) (inHg) (mb) (inHg) (C) (F) (%) (C) (F)
00:05 1020 30.12 850 25.1 9.2 48.5 59 1.6 34.8
00:10 1020 30.12 850 25.1 9.3 48.8 59 1.7 35.1
00:15 1020 30.12 850 25.1 9.4 48.8 58 1.5 34.7
00:20 1020 30.12 850 25.1 9.3 48.8 59 1.6 35
00:25 1021 30.15 850 25.1 9.4 48.9 58 1.6 35
00:30 1021 30.15 850 25.1 9.4 48.9 58 1.6 35
00:35 1021 30.15 850 25.1 9.5 49 57 1.5 34.7
00:40 1021 30.15 850 25.1 9.6 49.3 56 1.4 34.5
00:45 1021 30.15 850 25.1 9.7 49.5 56 1.4 34.5
00:50 1021 30.15 850 25.1 10 49.9 55 1.3 34.4
00:55 1021 30.15 850 25.1 10 50 55 1.4 34.5
01:00 1021 30.15 850 25.1 9.9 49.9 56 1.5 34.8
01:05 1021 30.15 850 25.1 9.9 49.7 56 1.5 34.7
01:10 1021 30.15 850 25.1 9.8 49.6 56 1.6 34.8
01:15 1021 30.15 850 25.1 9.6 49.4 58 1.7 35.1
01:20 1021 30.15 850 25.1 9.3 48.7 61 2.2 36
01:25 1021 30.15 850 25.1 8.8 47.9 64 2.4 36.3
01:30 1020 30.12 850 25.1 8.5 47.2 64 2.1 35.7
01:35 1020 30.12 850 25.1 8.5 47.3 63 1.9 35.4
01:40 1020 30.12 850 25.1 8.5 47.2 64 2 35.7
01:45 1020 30.12 850 25.1 8.4 47.2 62 1.6 34.8
01:50 1020 30.12 850 25.1 8.5 47.3 65 2.3 36.2
01:55 1020 30.12 850 25.1 8.1 46.6 66 2.3 36.1
02:00 1020 30.12 850 25.1 8 46.3 67 2.2 35.9
02:05 1020 30.12 850 25.1 8 46.4 65 1.8 35.2
02:10 1020 30.12 849 25.07 8.6 47.5 62 1.7 35.1
02:15 1020 30.12 849 25.07 8.6 47.4 63 2 35.5
02:20 1020 30.12 849 25.07 8.4 47.1 64 2 35.6
02:25 1020 30.12 849 25.07 8 46.4 66 2 35.6
02:30 1020 30.12 849 25.07 7.9 46.3 66 2.1 35.7
02:35 1020 30.12 849 25.07 7.6 45.7 68 2 35.6
02:40 1020 30.12 849 25.07 7.6 45.7 66 1.8 35.2
02:45 1020 30.12 849 25.07 7.7 45.9 67 1.9 35.4
02:50 1020 30.12 849 25.07 7.8 46.1 65 1.7 35.1
02:55 1020 30.12 849 25.07 7.7 45.9 67 2 35.7
03:00 1020 30.12 849 25.07 7.7 45.9 65 1.7 35
03:05 1020 30.12 849 25.07 7.7 45.8 67 1.9 35.4
03:10 1020 30.12 849 25.07 7.4 45.3 67 1.7 35
03:15 1020 30.12 849 25.07 7.4 45.4 67 1.7 35
03:20 1020 30.12 849 25.07 7.4 45.3 67 1.8 35.2
03:25 1020 30.12 849 25.07 7.5 45.4 65 1.4 34.5
03:30 1020 30.12 849 25.07 7.7 45.9 65 1.6 34.9
03:35 1020 30.12 849 25.07 7.6 45.7 65 1.4 34.5
03:40 1020 30.12 849 25.07 7.6 45.6 65 1.4 34.6
03:45 1020 30.12 849 25.07 7.5 45.5 66 1.5 34.8
03:50 1020 30.12 849 25.07 7.4 45.3 66 1.4 34.6
03:55 1020 30.12 849 25.07 7.4 45.4 65 1.4 34.5
04:00 1020 30.12 849 25.07 7.4 45.4 65 1.3 34.4
04:05 1020 30.12 849 25.07 7.4 45.3 66 1.4 34.4
04:10 1020 30.12 849 25.07 7.3 45.2 66 1.4 34.4
04:15 1020 30.12 849 25.07 7.4 45.2 65 1.3 34.4
04:20 1020 30.12 849 25.07 7.4 45.3 66 1.4 34.6
04:25 1020 30.12 849 25.07 7.4 45.3 66 1.5 34.7
04:30 1020 30.12 849 25.07 6.9 44.5 69 1.7 35.1
04:35 1020 30.12 849 25.07 6.6 43.8 71 1.7 35.1
04:40 1020 30.12 849 25.07 6 42.8 73 1.4 34.6
04:45 1020 30.12 849 25.07 6 42.8 71 1.2 34.2
04:50 1020 30.12 849 25.07 6.4 43.5 70 1.2 34.2
04:55 1020 30.12 849 25.07 6.5 43.7 69 1.3 34.3
05:00 1020 30.12 849 25.07 6.6 43.9 67 1 33.7
05:05 1020 30.12 849 25.07 7 44.6 67 1.4 34.5
05:10 1020 30.12 849 25.07 6.7 44.1 69 1.5 34.7
05:15 1020 30.12 849 25.07 6.3 43.3 71 1.4 34.6
05:20 1020 30.12 849 25.07 6 42.8 72 1.3 34.3
05:25 1020 30.12 849 25.07 5.6 42.1 75 1.6 34.9
05:30 1020 30.12 849 25.07 4.9 40.8 78 1.4 34.5
05:35 1020 30.12 849 25.07 5 41 76 1.2 34.1
05:40 1020 30.12 849 25.07 5.2 41.3 76 1.2 34.2
05:45 1020 30.12 849 25.07 5.2 41.4 75 1.3 34.3
05:50 1020 30.12 849 25.07 5.3 41.6 74 1.2 34.1
05:55 1020 30.12 849 25.07 5.5 41.9 73 1 33.8
06:00 1020 30.12 849 25.07 5.6 42.1 73 1.1 34.1
06:05 1020 30.12 849 25.07 5.7 42.3 72 1.1 34
06:10 1020 30.12 849 25.07 5.9 42.7 72 1.3 34.3
06:15 1020 30.12 849 25.07 5.7 42.3 73 1.3 34.3
06:20 1020 30.12 849 25.07 5.6 42.2 73 1.3 34.3
06:25 1020 30.12 849 25.07 5.7 42.3 73 1.3 34.4
06:30 1019 30.09 849 25.07 5.8 42.4 73 1.3 34.4
06:35 1019 30.09 848 25.04 5.9 42.6 73 1.4 34.4
06:40 1019 30.09 849 25.07 6.2 43.1 71 1.3 34.3
06:45 1019 30.09 849 25.07 6.6 43.9 69 1.3 34.3
06:50 1019 30.09 849 25.07 7 44.5 68 1.5 34.8
06:55 1019 30.09 849 25.07 7.3 45.2 65 1.3 34.4
07:00 1019 30.09 849 25.07 8.1 46.6 62 1.4 34.5
07:05 1019 30.09 849 25.07 8.8 47.8 60 1.6 34.8
07:10 1019 30.09 849 25.07 8.8 47.9 60 1.5 34.7
07:15 1019 30.09 849 25.07 8.8 47.9 62 1.9 35.5
07:20 1019 30.09 849 25.07 8.9 47.9 61 1.7 35.1
07:25 1020 30.12 849 25.07 8.8 47.9 62 1.9 35.4
07:30 1020 30.12 849 25.07 8.9 48 62 2 35.7
07:35 1020 30.12 849 25.07 9.3 48.7 62 2.4 36.2
07:40 1020 30.12 849 25.07 9.6 49.3 61 2.6 36.7
07:45 1020 30.12 849 25.07 9.9 49.7 59 2.2 36
07:50 1020 30.12 849 25.07 10.2 50.4 57 2.2 36
07:55 1020 30.12 849 25.07 10.3 50.6 57 2.3 36.1
08:00 1019 30.09 849 25.07 11 51.7 54 2 35.6
08:05 1019 30.09 849 25.07 11.5 52.6 51 1.8 35.2
08:10 1019 30.09 849 25.07 11.6 52.9 50 1.7 35.1
08:15 1019 30.09 849 25.07 12 53.6 49 1.7 35.1
08:20 1019 30.09 848 25.04 12.4 54.3 48 1.8 35.2
08:25 1019 30.09 848 25.04 13.1 55.6 48 2.6 36.6
08:30 1019 30.09 848 25.04 13.3 56 46 2 35.7
08:35 1019 30.09 848 25.04 13.9 57 44 2 35.6
08:40 1019 30.09 848 25.04 13.9 56.9 44 1.8 35.2
08:45 1019 30.09 848 25.04 13.7 56.6 43 1.5 34.7
08:50 1019 30.09 848 25.04 14.2 57.5 41 1.2 34.2
08:55 1019 30.09 848 25.04 14.6 58.2 41 1.5 34.6
09:00 1019 30.09 848 25.04 15.1 59.3 41 2.2 35.9
09:05 1019 30.09 848 25.04 15.7 60.3 40 2.3 36.1
09:10 1019 30.09 848 25.04 16.2 61.1 39 2.3 36.1
09:15 1019 30.09 848 25.04 16.7 62.1 37 2.1 35.8
09:20 1019 30.09 848 25.04 16.6 61.8 38 2.5 36.4
09:25 1019 30.09 848 25.04 16.8 62.3 37 2.1 35.7
09:30 1019 30.09 848 25.04 17 62.5 35 1.7 35.1
09:35 1019 30.09 848 25.04 17.3 63.2 34 1.6 34.9
09:40 1018 30.06 848 25.04 16.8 62.3 35 1.3 34.4
09:45 1018 30.06 848 25.04 17 62.5 33 0.6 33.1
09:50 1018 30.06 848 25.04 17.5 63.5 32 0.6 33
09:55 1018 30.06 848 25.04 18.4 65.1 31 1.1 34
10:00 1018 30.06 847 25.01 19.4 66.9 30 1.4 34.5
10:05 1018 30.06 847 25.01 19.4 67 30 1.6 34.8
10:10 1018 30.06 847 25.01 18.6 65.5 31 1.3 34.3
10:15 1018 30.06 847 25.01 18.5 65.2 32 1.4 34.5
10:20 1018 30.06 847 25.01 18.9 66.1 31 1.8 35.2
10:25 1018 30.06 847 25.01 19.4 66.9 31 2 35.7
10:30 1018 30.06 847 25.01 19.9 67.7 30 1.8 35.2
10:35 1018 30.06 847 25.01 20.6 69.2 27 1.4 34.5
10:40 1018 30.06 847 25.01 20.7 69.3 29 2.2 36
10:45 1018 30.06 847 25.01 20.2 68.4 28 1.2 34.2
10:50 1018 30.06 847 25.01 20.4 68.7 31 2.9 37.3
10:55 1018 30.06 847 25.01 19.6 67.3 31 2.4 36.3
11:00 1018 30.06 847 25.01 19.5 67.2 30 1.6 34.9
11:05 1017 30.03 847 25.01 20.4 68.6 29 2 35.6
11:10 1017 30.03 847 25.01 21.2 70.2 28 2.2 36
11:15 1017 30.03 846 24.98 22.1 71.8 26 1.7 35.1
11:20 1017 30.03 846 24.98 22.8 73.1 25 1.8 35.2
11:25 1017 30.03 846 24.98 23.3 73.9 24 1.8 35.2
11:30 1017 30.03 846 24.98 22.2 72 26 1.8 35.3
11:35 1017 30.03 846 24.98 21.7 71.1 26 1.7 35.1
11:40 1017 30.03 846 24.98 21.8 71.3 27 2 35.7
11:45 1017 30.03 846 24.98 23 73.4 25 1.9 35.4
11:50 1017 30.03 846 24.98 22.9 73.1 29 4.2 39.5
11:55 1017 30.03 846 24.98 22 71.7 27 2.1 35.9
12:00 1017 30.03 846 24.98 23.1 73.5 26 2.8 37
12:05 1017 30.03 846 24.98 23.5 74.3 26 2.9 37.2
12:10 1017 30.03 846 24.98 23.3 74 25 2.6 36.6
12:15 1017 30.03 846 24.98 22.8 73 28 3.3 38
12:20 1017 30.03 846 24.98 22.4 72.2 28 3.4 38.1
12:25 1016 30 846 24.98 22.2 72 28 2.9 37.3
12:30 1016 30 845 24.95 23 73.4 27 3.4 38
12:35 1016 30 845 24.95 23 73.4 27 3.2 37.8
12:40 1016 30 845 24.95 23.6 74.4 27 3.5 38.3
12:45 1016 30 845 24.95 23.9 75 22 0.9 33.5
12:50 1016 30 845 24.95 24.5 76.1 22 1.6 34.9
12:55 1016 30 845 24.95 24.7 76.5 21 1.4 34.5
13:00 1016 30 845 24.95 24.7 76.5 22 1.8 35.2
13:05 1016 30 845 24.95 24.9 76.7 21 1.6 34.8
13:10 1016 30 845 24.95 24.6 76.3 23 2.1 35.8
13:15 1016 30 845 24.95 24.5 76.1 21 1.2 34.1
13:20 1015 29.97 845 24.95 25 77.1 22 2.1 35.8
13:25 1015 29.97 845 24.95 24.9 76.9 22 1.8 35.2
13:30 1015 29.97 844 24.92 25 76.9 21 1.2 34.1
13:35 1015 29.97 844 24.92 24.3 75.7 22 1.7 35.1
13:40 1015 29.97 844 24.92 24.4 75.8 22 1.5 34.6
13:45 1015 29.97 844 24.92 24.6 76.3 22 1.8 35.2
13:50 1015 29.97 844 24.92 25.1 77.1 21 1.2 34.2
13:55 1015 29.97 844 24.92 24.9 76.7 21 1 33.8
14:00 1015 29.97 844 24.92 24.5 76 21 0.7 33.3
14:05 1015 29.97 844 24.92 24.6 76.3 21 1.3 34.4
14:10 1015 29.97 844 24.92 24.7 76.5 23 2.2 35.9
14:15 1015 29.97 844 24.92 25.2 77.3 21 1.9 35.4
14:20 1015 29.97 844 24.92 26 78.9 19 0.8 33.5
14:25 1015 29.97 844 24.92 25.9 78.6 20 1.8 35.3
14:30 1015 29.97 844 24.92 25.5 78 20 1.3 34.4
14:35 1015 29.97 844 24.92 25.6 78.1 21 2 35.6
14:40 1015 29.97 844 24.92 24.9 76.7 21 1.4 34.5
14:45 1015 29.97 844 24.92 24.6 76.3 22 1.5 34.7
14:50 1014 29.94 844 24.92 24.2 75.5 21 0.7 33.3
14:55 1014 29.94 844 24.92 24.1 75.3 21 0.7 33.3
15:00 1014 29.94 844 24.92 23.9 75 22 0.8 33.4
15:05 1014 29.94 843 24.89 24.4 76 21 0.7 33.3
15:10 1014 29.94 843 24.89 25.3 77.6 19 0.6 33.1
15:15 1014 29.94 843 24.89 26.1 78.9 20 1.5 34.6
15:20 1014 29.94 843 24.89 26.1 79 20 1.3 34.4
15:25 1014 29.94 843 24.89 26.1 79 20 1.7 35
15:30 1014 29.94 843 24.89 26.1 78.9 19 0.9 33.7
15:35 1014 29.94 843 24.89 25.7 78.3 19 0.8 33.4
15:40 1014 29.94 843 24.89 25.6 78.1 20 1.5 34.7
15:45 1014 29.94 843 24.89 25.9 78.6 19 0.8 33.5
15:50 1014 29.94 843 24.89 25.5 77.8 20 1.1 33.9
15:55 1014 29.94 843 24.89 24.8 76.7 20 0.6 33.1
16:00 1014 29.94 843 24.89 24.9 76.8 20 0.3 32.6
16:05 1014 29.94 843 24.89 24.7 76.5 21 1.3 34.4
16:10 1014 29.94 843 24.89 25.1 77.3 21 1.6 34.9
16:15 1013 29.91 843 24.89 25.4 77.7 21 1.9 35.5
16:20 1013 29.91 843 24.89 25.2 77.3 21 1.6 34.8
16:25 1013 29.91 843 24.89 25.8 78.5 20 1.7 35.1
16:30 1013 29.91 843 24.89 25.9 78.6 21 1.8 35.3
16:35 1013 29.91 843 24.89 26.1 78.9 21 2.4 36.4
16:40 1013 29.91 842 24.86 26.5 79.6 21 2.9 37.2
16:45 1013 29.91 842 24.86 26.4 79.5 21 2.7 36.9
16:50 1013 29.91 842 24.86 26 78.9 22 3 37.4
16:55 1013 29.91 842 24.86 25.3 77.5 24 3.5 38.2
17:00 1013 29.91 842 24.86 24.9 76.7 24 3.4 38.1
17:05 1013 29.91 842 24.86 24.5 76.1 23 2.4 36.2
17:10 1013 29.91 842 24.86 25.1 77.1 23 2.7 36.8
17:15 1013 29.91 842 24.86 25.7 78.3 22 3 37.3
17:20 1013 29.91 842 24.86 25.7 78.3 21 1.8 35.2
17:25 1013 29.91 842 24.86 25.3 77.5 21 1.7 35
17:30 1013 29.91 842 24.86 25 77 23 2.7 36.8
17:35 1013 29.91 842 24.86 25.1 77.2 22 2.1 35.7
17:40 1013 29.91 842 24.86 24.7 76.5 24 2.9 37.2
17:45 1013 29.91 842 24.86 24.3 75.8 24 2.8 37
17:50 1013 29.91 842 24.86 23.8 74.8 24 2.4 36.2
17:55 1013 29.91 842 24.86 23.5 74.2 24 2.1 35.7
18:00 1012 29.88 842 24.86 23.4 74.1 21 0.2 32.3
18:05 1013 29.91 842 24.86 23.4 74.2 21 0.2 32.3
18:10 1012 29.88 842 24.86 23.5 74.2 24 2 35.6
18:15 1012 29.88 842 24.86 23.5 74.3 24 1.8 35.2
18:20 1013 29.91 842 24.86 23.6 74.5 24 2.3 36.2
18:25 1012 29.88 842 24.86 23.2 73.8 27 3.3 37.9
18:30 1012 29.88 842 24.86 22.8 73 28 3.3 38
18:35 1012 29.88 842 24.86 22.6 72.6 27 3 37.4
18:40 1012 29.88 842 24.86 22.4 72.3 28 3.3 37.9
18:45 1012 29.88 842 24.86 22.1 71.8 29 3.7 38.6
18:50 1012 29.88 842 24.86 21.7 71 26 1.6 34.9
18:55 1012 29.88 841 24.83 21.8 71.3 26 1.9 35.4
19:00 1012 29.88 841 24.83 21.9 71.4 25 1 33.8
19:05 1012 29.88 841 24.83 22 71.5 25 1.3 34.3
19:10 1013 29.91 842 24.86 21.8 71.2 27 2.3 36.1
19:15 1012 29.88 842 24.86 21.1 70 34 4.7 40.5
19:20 1012 29.88 842 24.86 20 68.1 33 3.6 38.5
19:25 1013 29.91 842 24.86 20.1 68.1 32 2.9 37.2
19:30 1013 29.91 842 24.86 19.8 67.6 36 4.3 39.7
19:35 1013 29.91 842 24.86 19.2 66.5 40 5.5 41.9
19:40 1012 29.88 841 24.83 18.9 66 40 5.1 41.2
19:45 1012 29.88 841 24.83 19.1 66.3 39 5.1 41.2
19:50 1012 29.88 841 24.83 19.3 66.7 33 2.8 37.1
19:55 1012 29.88 842 24.86 19.7 67.4 36 4.2 39.6
20:00 1013 29.91 842 24.86 19.4 66.9 39 5.3 41.6
20:05 1013 29.91 842 24.86 18.8 65.9 41 5.5 41.8
20:10 1013 29.91 842 24.86 18.3 65 45 6.2 43.2
20:15 1013 29.91 842 24.86 18.1 64.5 45 6.2 43.2
20:20 1013 29.91 842 24.86 18.1 64.6 46 6.4 43.4
20:25 1013 29.91 842 24.86 17.9 64.3 47 6.5 43.7
20:30 1013 29.91 842 24.86 17.9 64.3 47 6.5 43.7
20:35 1013 29.91 842 24.86 17.9 64.2 47 6.6 43.9
20:40 1013 29.91 843 24.89 17.9 64.2 47 6.6 43.9
20:45 1013 29.91 842 24.86 17.8 64 48 6.8 44.3
20:50 1013 29.91 842 24.86 17.5 63.4 52 7.5 45.5
20:55 1013 29.91 842 24.86 17.2 62.9 52 7.2 45
21:00 1013 29.91 843 24.89 17.2 63 52 7.3 45.2
21:05 1014 29.94 843 24.89 17.3 63.1 52 7.4 45.3
21:10 1013 29.91 843 24.89 17.2 63 52 7.5 45.4
21:15 1013 29.91 843 24.89 17.2 62.9 52 7.4 45.3
21:20 1014 29.94 843 24.89 17.1 62.9 52 7.3 45.1
21:25 1014 29.94 843 24.89 17.2 62.9 53 7.6 45.7
21:30 1014 29.94 843 24.89 17 62.6 55 8 46.3
21:35 1013 29.91 843 24.89 16.8 62.3 56 8.2 46.7
21:40 1014 29.94 843 24.89 16.7 62.1 56 8.1 46.6
21:45 1014 29.94 843 24.89 16.7 62.1 60 9 48.3
21:50 1014 29.94 843 24.89 16.7 62.1 62 9.4 48.9
21:55 1014 29.94 843 24.89 16.5 61.6 64 9.6 49.3
22:00 1014 29.94 843 24.89 16 60.8 67 9.9 49.8
22:05 1014 29.94 843 24.89 15.4 59.7 68 9.6 49.4
22:10 1014 29.94 843 24.89 15.1 59.3 71 9.9 49.8
22:15 1015 29.97 844 24.92 14.3 57.7 77 10.3 50.6
22:20 1015 29.97 844 24.92 13.3 55.9 79 9.8 49.6
22:25 1015 29.97 845 24.95 12.7 54.8 81 9.5 49
22:30 1016 30 845 24.95 12.1 53.8 81 9 48.2
22:35 1016 30 845 24.95 11.7 53.1 82 8.7 47.6
22:40 1017 30.03 846 24.98 11.2 52.2 83 8.4 47.1
22:45 1017 30.03 846 24.98 10.8 51.4 86 8.5 47.4
22:50 1016 30 846 24.98 10.4 50.8 86 8.2 46.7
22:55 1017 30.03 846 24.98 10 50.1 86 7.9 46.2
23:00 1017 30.03 846 24.98 9.9 49.9 87 7.8 46.1
23:05 1017 30.03 846 24.98 9.8 49.6 87 7.8 46
23:10 1017 30.03 846 24.98 9.7 49.5 85 7.4 45.3
23:15 1017 30.03 846 24.98 9.8 49.7 83 7 44.7
23:20 1017 30.03 847 25.01 10 49.9 80 6.7 44.1
23:25 1018 30.06 847 25.01 10.1 50.1 79 6.6 43.9
23:30 1018 30.06 847 25.01 10.1 50.2 79 6.7 44
23:35 1018 30.06 847 25.01 10 50.1 79 6.7 44
23:40 1018 30.06 847 25.01 10 49.9 78 6.3 43.3
23:45 1018 30.06 847 25.01 10 50 74 5.6 42.1
23:50 1018 30.06 847 25.01 10.1 50.2 73 5.4 41.8
23:55 1018 30.06 847 25.01 9.9 49.7 74 5.5 41.9
24:00 1018 30.06 847 25.01 9.7 49.5 75 5.5 41.8